createdAt,value
2018-10-17T00:00:14.457Z,16.07
2018-10-17T00:02:43.717Z,18.67
2018-10-17T00:05:12.224Z,19.57
2018-10-17T00:07:40.798Z,19.60
2018-10-17T00:10:10.694Z,18.63
2018-10-17T00:12:39.595Z,18.47
2018-10-17T00:15:08.535Z,18.27
2018-10-17T00:17:37.553Z,21.40
2018-10-17T00:20:07.574Z,22.00
2018-10-17T00:22:35.884Z,21.87
2018-10-17T00:25:04.585Z,20.20
2018-10-17T00:27:33.327Z,18.20
2018-10-17T00:30:01.659Z,20.03
2018-10-17T00:32:30.588Z,21.67
2018-10-17T00:34:59.216Z,21.50
2018-10-17T00:37:27.546Z,22.83
2018-10-17T00:39:56.483Z,23.53
2018-10-17T00:42:25.108Z,23.47
2018-10-17T00:44:53.453Z,23.93
2018-10-17T00:47:22.182Z,31.63
2018-10-17T00:49:50.490Z,24.60
2018-10-17T00:52:19.181Z,25.30
2018-10-17T00:54:47.837Z,27.90
2018-10-17T00:57:16.324Z,30.10
2018-10-17T00:59:45.121Z,29.20
2018-10-17T01:02:13.862Z,33.47
2018-10-17T01:04:42.453Z,33.03
2018-10-17T01:07:11.032Z,35.47
2018-10-17T01:09:39.777Z,30.60
2018-10-17T01:12:08.363Z,30.93
2018-10-17T01:14:36.680Z,27.87
2018-10-17T01:17:05.724Z,33.03
2018-10-17T01:19:34.299Z,28.87
2018-10-17T01:22:02.756Z,36.47
2018-10-17T01:24:31.432Z,35.20
2018-10-17T01:26:59.805Z,40.13
2018-10-17T01:29:28.603Z,37.60
2018-10-17T01:31:57.173Z,38.10
2018-10-17T01:34:25.526Z,38.70
2018-10-17T01:36:53.879Z,43.27
2018-10-17T01:39:22.627Z,36.63
2018-10-17T01:41:51.536Z,34.70
2018-10-17T01:44:20.030Z,38.07
2018-10-17T01:46:48.822Z,40.67
2018-10-17T01:49:17.742Z,37.83
2018-10-17T01:51:46.070Z,34.60
2018-10-17T01:54:14.711Z,39.53
2018-10-17T01:56:43.018Z,40.97
2018-10-17T01:59:11.885Z,39.40
2018-10-17T02:01:40.466Z,40.53
2018-10-17T02:04:09.239Z,42.73
2018-10-17T02:06:37.891Z,42.77
2018-10-17T02:09:08.557Z,44.40
2018-10-17T02:11:37.940Z,41.60
2018-10-17T02:14:06.462Z,45.27
2018-10-17T02:16:35.188Z,47.17
2018-10-17T02:19:03.711Z,40.90
2018-10-17T02:21:32.078Z,38.93
2018-10-17T02:24:00.782Z,40.13
2018-10-17T02:26:29.393Z,39.93
2018-10-17T02:28:57.903Z,44.90
2018-10-17T02:31:26.680Z,37.17
2018-10-17T02:33:55.461Z,42.17
2018-10-17T02:36:24.231Z,41.43
2018-10-17T02:38:52.908Z,42.63
2018-10-17T02:41:21.717Z,50.53
2018-10-17T02:43:50.077Z,48.07
2018-10-17T02:46:18.771Z,40.40
2018-10-17T02:48:48.089Z,43.83
2018-10-17T02:51:16.431Z,45.57
2018-10-17T02:53:45.150Z,44.47
2018-10-17T02:56:14.043Z,36.73
2018-10-17T02:58:42.425Z,50.60
2018-10-17T03:01:11.286Z,44.80
2018-10-17T03:03:40.193Z,43.27
2018-10-17T03:06:08.546Z,41.23
2018-10-17T03:08:37.437Z,43.23
2018-10-17T03:11:06.465Z,43.77
2018-10-17T03:13:34.895Z,50.23
2018-10-17T03:16:03.622Z,49.20
2018-10-17T03:18:32.279Z,52.80
2018-10-17T03:21:00.645Z,43.30
2018-10-17T03:23:29.373Z,49.17
2018-10-17T03:25:58.119Z,46.20
2018-10-17T03:28:26.795Z,44.43
2018-10-17T03:30:55.644Z,48.13
2018-10-17T03:33:24.197Z,47.23
2018-10-17T03:35:53.240Z,41.10
2018-10-17T03:38:21.940Z,48.90
2018-10-17T03:40:50.824Z,56.57
2018-10-17T03:43:19.462Z,51.60
2018-10-17T03:45:48.460Z,45.97
2018-10-17T03:48:16.912Z,46.87
2018-10-17T03:50:45.498Z,49.93
2018-10-17T03:53:14.150Z,46.97
2018-10-17T03:55:42.647Z,45.60
2018-10-17T03:58:11.151Z,61.50
2018-10-17T04:00:39.801Z,53.33
2018-10-17T04:03:08.684Z,57.17
2018-10-17T04:05:37.004Z,67.73
2018-10-17T04:08:05.770Z,58.53
2018-10-17T04:10:34.901Z,57.20
2018-10-17T04:13:03.337Z,55.30
2018-10-17T04:15:32.027Z,57.57
2018-10-17T04:18:00.503Z,62.27
2018-10-17T04:20:28.843Z,83.87
2018-10-17T04:22:57.964Z,69.77
2018-10-17T04:25:26.768Z,83.30
2018-10-17T04:27:55.325Z,66.50
2018-10-17T04:30:24.325Z,72.23
2018-10-17T04:32:53.103Z,64.43
2018-10-17T04:35:21.402Z,61.37
2018-10-17T04:37:50.003Z,68.00
2018-10-17T04:40:19.177Z,69.80
2018-10-17T04:42:47.505Z,79.27
2018-10-17T04:45:15.967Z,94.80
2018-10-17T04:47:45.310Z,89.03
2018-10-17T04:50:13.821Z,99.07
2018-10-17T04:52:42.633Z,97.93
2018-10-17T04:55:11.507Z,85.13
2018-10-17T04:57:40.505Z,89.27
2018-10-17T05:00:11.328Z,79.87
2018-10-17T05:02:40.426Z,96.53
2018-10-17T05:05:09.124Z,105.10
2018-10-17T05:07:37.975Z,124.87
2018-10-17T05:10:06.768Z,99.40
2018-10-17T05:12:35.086Z,108.07
2018-10-17T05:15:03.786Z,119.40
2018-10-17T05:17:32.359Z,111.27
2018-10-17T05:20:00.681Z,122.20
2018-10-17T05:22:29.481Z,104.73
2018-10-17T05:24:58.323Z,140.20
2018-10-17T05:27:26.804Z,120.30
2018-10-17T05:29:55.586Z,127.43
2018-10-17T05:32:24.295Z,147.03
2018-10-17T05:34:52.640Z,145.30
2018-10-17T05:37:21.320Z,149.50
2018-10-17T05:39:50.080Z,162.93
2018-10-17T05:42:18.696Z,176.43
2018-10-17T05:44:47.473Z,211.83
2018-10-17T05:47:16.508Z,160.67
2018-10-17T05:49:44.829Z,169.53
2018-10-17T05:52:13.385Z,210.13
2018-10-17T05:54:42.336Z,201.30
2018-10-17T05:57:10.661Z,200.90
2018-10-17T05:59:39.133Z,174.00
2018-10-17T06:02:11.265Z,180.83
2018-10-17T06:04:39.591Z,198.70
2018-10-17T06:07:08.294Z,178.37
2018-10-17T06:09:37.027Z,183.43
2018-10-17T06:12:05.571Z,160.97
2018-10-17T06:14:34.305Z,164.50
2018-10-17T06:17:03.470Z,178.73
2018-10-17T06:19:31.734Z,164.83
2018-10-17T06:22:00.508Z,173.47
2018-10-17T06:24:29.464Z,184.20
2018-10-17T06:26:58.172Z,165.70
2018-10-17T06:29:26.716Z,142.93
2018-10-17T06:31:55.332Z,146.27
2018-10-17T06:34:23.966Z,142.93
2018-10-17T06:36:52.854Z,143.43
2018-10-17T06:39:21.581Z,140.53
2018-10-17T06:41:50.517Z,121.93
2018-10-17T06:44:19.174Z,124.27
2018-10-17T06:46:48.225Z,122.13
2018-10-17T06:49:16.554Z,107.23
2018-10-17T06:51:45.198Z,117.43
2018-10-17T06:54:14.229Z,88.63
2018-10-17T06:56:42.861Z,89.80
2018-10-17T06:59:11.366Z,109.17
2018-10-17T07:01:40.061Z,112.17
2018-10-17T07:04:08.401Z,109.73
2018-10-17T07:06:37.305Z,110.63
2018-10-17T07:09:08.667Z,122.37
2018-10-17T07:11:37.198Z,94.70
2018-10-17T07:14:06.269Z,94.97
2018-10-17T07:16:35.028Z,95.60
2018-10-17T07:19:03.804Z,90.33
2018-10-17T07:21:32.471Z,85.90
2018-10-17T07:24:01.285Z,80.47
2018-10-17T07:26:30.042Z,95.63
2018-10-17T07:28:59.012Z,86.13
2018-10-17T07:31:27.918Z,72.63
2018-10-17T07:33:56.293Z,73.67
2018-10-17T07:36:24.896Z,72.17
2018-10-17T07:38:53.504Z,68.37
2018-10-17T07:41:22.265Z,67.47
2018-10-17T07:43:51.102Z,65.07
2018-10-17T07:46:19.488Z,65.10
2018-10-17T07:48:48.347Z,64.50
2018-10-17T07:51:17.157Z,66.47
2018-10-17T07:53:45.926Z,54.93
2018-10-17T07:56:14.281Z,54.63
2018-10-17T07:58:42.914Z,58.73
2018-10-17T08:01:11.889Z,59.43
2018-10-17T08:03:40.387Z,49.87
2018-10-17T08:06:09.258Z,50.83
2018-10-17T08:08:38.225Z,47.53
2018-10-17T08:11:06.559Z,53.07
2018-10-17T08:13:35.370Z,54.43
2018-10-17T08:16:04.371Z,52.97
2018-10-17T08:18:33.050Z,55.07
2018-10-17T08:21:01.987Z,48.27
2018-10-17T08:23:30.512Z,48.53
2018-10-17T08:25:58.849Z,49.70
2018-10-17T08:28:27.598Z,51.30
2018-10-17T08:30:56.474Z,52.50
2018-10-17T08:33:24.856Z,47.97
2018-10-17T08:35:54.264Z,45.77
2018-10-17T08:38:22.580Z,55.37
2018-10-17T08:40:50.993Z,51.87
2018-10-17T08:43:20.149Z,52.67
2018-10-17T08:45:48.839Z,52.00
2018-10-17T08:48:17.170Z,52.47
2018-10-17T08:50:45.986Z,51.97
2018-10-17T08:53:15.144Z,52.60
2018-10-17T08:55:43.427Z,51.63
2018-10-17T08:58:12.461Z,52.77
2018-10-17T09:00:41.223Z,55.73
2018-10-17T09:03:09.540Z,46.97
2018-10-17T09:05:38.466Z,52.00
2018-10-17T09:08:07.289Z,51.47
2018-10-17T09:10:35.734Z,55.03
2018-10-17T09:13:04.982Z,49.67
2018-10-17T09:15:38.379Z,47.93
2018-10-17T09:18:02.378Z,50.87
2018-10-17T09:20:31.655Z,52.80
2018-10-17T09:23:00.118Z,56.47
2018-10-17T09:25:28.506Z,47.63
2018-10-17T09:27:57.295Z,52.90
2018-10-17T09:30:26.178Z,45.80
2018-10-17T09:32:54.421Z,55.37
2018-10-17T09:35:23.308Z,48.10
2018-10-17T09:37:52.259Z,45.47
2018-10-17T09:40:20.651Z,48.00
2018-10-17T09:42:49.360Z,44.50
2018-10-17T09:45:18.076Z,49.30
2018-10-17T09:47:46.504Z,47.93
2018-10-17T09:50:15.253Z,43.57
2018-10-17T09:52:43.643Z,43.10
2018-10-17T09:55:11.961Z,41.77
2018-10-17T09:57:40.904Z,42.60
2018-10-17T10:00:14.631Z,42.67
2018-10-17T10:02:43.431Z,46.57
2018-10-17T10:05:11.929Z,48.63
2018-10-17T10:07:40.313Z,45.67
2018-10-17T10:10:09.205Z,47.50
2018-10-17T10:12:37.825Z,45.90
2018-10-17T10:15:06.530Z,45.30
2018-10-17T10:17:35.534Z,50.70
2018-10-17T10:20:04.053Z,48.30
2018-10-17T10:22:32.654Z,45.03
2018-10-17T10:25:01.617Z,47.90
2018-10-17T10:27:29.969Z,47.63
2018-10-17T10:29:58.763Z,41.67
2018-10-17T10:32:27.559Z,43.70
2018-10-17T10:34:55.942Z,43.07
2018-10-17T10:37:24.435Z,45.77
2018-10-17T10:39:53.388Z,52.03
2018-10-17T10:42:22.183Z,51.00
2018-10-17T10:44:50.992Z,47.83
2018-10-17T10:47:20.051Z,50.40
2018-10-17T10:49:48.362Z,47.60
2018-10-17T10:52:16.676Z,53.50
2018-10-17T10:54:45.821Z,48.77
2018-10-17T10:57:14.186Z,46.17
2018-10-17T10:59:42.886Z,47.77
2018-10-17T11:02:11.792Z,51.30
2018-10-17T11:04:40.424Z,48.47
2018-10-17T11:07:08.727Z,44.57
2018-10-17T11:09:37.511Z,50.63
2018-10-17T11:12:06.358Z,43.63
2018-10-17T11:14:34.853Z,45.40
2018-10-17T11:17:03.404Z,44.80
2018-10-17T11:19:31.737Z,45.40
2018-10-17T11:22:00.127Z,41.00
2018-10-17T11:24:29.401Z,43.23
2018-10-17T11:26:57.891Z,38.03
2018-10-17T11:29:26.269Z,40.23
2018-10-17T11:31:55.606Z,38.33
2018-10-17T11:34:24.197Z,52.60
2018-10-17T11:36:52.568Z,37.30
2018-10-17T11:39:21.536Z,39.67
2018-10-17T11:41:50.061Z,35.57
2018-10-17T11:44:18.935Z,35.87
2018-10-17T11:46:47.888Z,34.40
2018-10-17T11:49:16.537Z,29.47
2018-10-17T11:51:44.860Z,33.87
2018-10-17T11:54:13.867Z,34.60
2018-10-17T11:56:43.089Z,27.93
2018-10-17T11:59:11.790Z,26.97
2018-10-17T12:01:40.628Z,32.00
2018-10-17T12:04:09.332Z,28.80
2018-10-17T12:06:37.458Z,36.87
2018-10-17T12:09:08.744Z,27.33
2018-10-17T12:11:37.263Z,27.07
2018-10-17T12:14:05.815Z,31.63
2018-10-17T12:16:34.706Z,31.03
2018-10-17T12:19:03.030Z,29.40
2018-10-17T12:21:31.663Z,27.17
2018-10-17T12:24:01.403Z,32.70
2018-10-17T12:26:29.694Z,28.40
2018-10-17T12:28:58.184Z,34.43
2018-10-17T12:31:27.133Z,33.57
2018-10-17T12:33:55.481Z,28.87
2018-10-17T12:36:23.827Z,29.63
2018-10-17T12:38:53.786Z,25.43
2018-10-17T12:41:22.128Z,29.53
2018-10-17T12:43:50.477Z,27.33
2018-10-17T12:46:19.425Z,29.50
2018-10-17T12:48:47.872Z,29.33
2018-10-17T12:51:16.227Z,33.30
2018-10-17T12:53:45.454Z,26.47
2018-10-17T12:56:13.837Z,31.97
2018-10-17T12:58:42.126Z,27.53
2018-10-17T13:01:11.413Z,28.33
2018-10-17T13:03:39.718Z,26.27
2018-10-17T13:06:08.616Z,27.60
2018-10-17T13:08:37.231Z,32.67
2018-10-17T13:11:06.422Z,27.23
2018-10-17T13:13:35.286Z,30.43
2018-10-17T13:16:04.556Z,36.57
2018-10-17T13:18:32.937Z,33.43
2018-10-17T13:21:01.444Z,24.57
2018-10-17T13:23:30.742Z,31.87
2018-10-17T13:25:59.144Z,29.60
2018-10-17T13:28:27.672Z,29.90
2018-10-17T13:30:57.120Z,31.20
2018-10-17T13:33:25.533Z,38.53
2018-10-17T13:35:54.058Z,31.60
2018-10-17T13:38:23.016Z,30.43
2018-10-17T13:40:51.480Z,31.37
2018-10-17T13:43:19.890Z,33.03
2018-10-17T13:45:48.759Z,34.60
2018-10-17T13:48:17.490Z,36.30
2018-10-17T13:50:45.850Z,40.03
2018-10-17T13:53:14.906Z,36.97
2018-10-17T13:55:43.200Z,37.73
2018-10-17T13:58:11.551Z,34.40
2018-10-17T14:00:40.870Z,35.00
2018-10-17T14:03:09.202Z,39.77
2018-10-17T14:05:37.548Z,34.87
2018-10-17T14:08:06.764Z,35.80
2018-10-17T14:10:35.308Z,37.87
2018-10-17T14:13:04.017Z,42.23
2018-10-17T14:15:33.124Z,35.60
2018-10-17T14:18:01.477Z,40.57
2018-10-17T14:20:29.844Z,40.93
2018-10-17T14:22:59.178Z,39.63
2018-10-17T14:25:27.515Z,40.97
2018-10-17T14:27:56.135Z,45.33
2018-10-17T14:30:25.407Z,40.40
2018-10-17T14:32:53.885Z,41.40
2018-10-17T14:35:22.377Z,54.17
2018-10-17T14:37:51.392Z,48.20
2018-10-17T14:40:33.243Z,54.33
2018-10-17T14:43:02.480Z,49.67
2018-10-17T14:45:31.432Z,46.53
2018-10-17T14:47:59.795Z,57.60
2018-10-17T14:50:28.839Z,53.90
2018-10-17T14:52:57.195Z,55.20
2018-10-17T14:55:25.532Z,58.27
2018-10-17T14:57:54.351Z,55.43
2018-10-17T15:00:23.169Z,60.83
2018-10-17T15:02:51.612Z,65.60
2018-10-17T15:05:21.872Z,59.90
2018-10-17T15:07:50.250Z,61.33
2018-10-17T15:10:18.623Z,57.80
2018-10-17T15:12:47.479Z,61.87
2018-10-17T15:15:15.920Z,62.80
2018-10-17T15:17:44.262Z,72.40
2018-10-17T15:20:13.206Z,71.97
2018-10-17T15:22:41.552Z,77.20
2018-10-17T15:25:09.913Z,71.53
2018-10-17T15:27:39.181Z,74.83
2018-10-17T15:30:07.863Z,68.57
2018-10-17T15:32:36.436Z,69.60
2018-10-17T15:35:06.410Z,70.37
2018-10-17T15:37:34.893Z,70.87
2018-10-17T15:40:03.209Z,68.63
2018-10-17T15:42:32.452Z,73.27
2018-10-17T15:45:01.061Z,69.27
2018-10-17T15:47:29.406Z,62.70
2018-10-17T15:49:58.416Z,61.73
2018-10-17T15:52:27.086Z,54.97
2018-10-17T15:54:55.521Z,63.63
2018-10-17T15:57:24.867Z,61.40
2018-10-17T15:59:53.256Z,63.07
2018-10-17T16:02:21.676Z,57.27
2018-10-17T16:04:50.479Z,53.97
2018-10-17T16:07:18.895Z,54.37
2018-10-17T16:09:47.312Z,63.03
2018-10-17T16:12:16.583Z,50.13
2018-10-17T16:14:44.966Z,54.27
2018-10-17T16:17:13.350Z,53.80
2018-10-17T16:19:42.568Z,52.67
2018-10-17T16:22:10.951Z,49.57
2018-10-17T16:24:39.456Z,53.63
2018-10-17T16:27:08.335Z,54.07
2018-10-17T16:29:36.810Z,56.13
2018-10-17T16:32:05.811Z,54.77
2018-10-17T16:34:34.831Z,62.20
2018-10-17T16:37:03.210Z,56.93
2018-10-17T16:39:31.528Z,64.33
2018-10-17T16:42:00.684Z,51.90
2018-10-17T16:44:29.071Z,60.03
2018-10-17T16:46:57.471Z,68.97
2018-10-17T16:49:26.328Z,61.83
2018-10-17T16:51:54.713Z,64.70
2018-10-17T16:54:23.085Z,54.07
2018-10-17T16:56:51.928Z,57.80
2018-10-17T16:59:20.653Z,59.57
2018-10-17T17:01:49.038Z,56.27
2018-10-17T17:04:17.983Z,50.87
2018-10-17T17:06:46.550Z,56.87
2018-10-17T17:09:14.939Z,48.10
2018-10-17T17:11:44.038Z,50.63
2018-10-17T17:14:12.411Z,51.23
2018-10-17T17:16:40.844Z,45.87
2018-10-17T17:19:09.464Z,46.80
2018-10-17T17:21:37.767Z,48.00
2018-10-17T17:24:06.317Z,45.43
2018-10-17T17:26:35.387Z,43.73
2018-10-17T17:29:03.760Z,50.33
2018-10-17T17:31:32.081Z,50.10
2018-10-17T17:34:01.115Z,47.60
2018-10-17T17:36:30.130Z,47.87
2018-10-17T17:38:59.331Z,48.00
2018-10-17T17:41:27.952Z,50.37
2018-10-17T17:43:56.261Z,40.87
2018-10-17T17:46:24.598Z,42.43
2018-10-17T17:48:53.695Z,43.63
2018-10-17T17:51:22.311Z,41.37
2018-10-17T17:53:50.684Z,40.47
2018-10-17T17:56:19.437Z,41.97
2018-10-17T17:58:48.097Z,44.93
2018-10-17T18:01:16.456Z,39.93
2018-10-17T18:03:45.808Z,40.70
2018-10-17T18:06:14.541Z,39.53
2018-10-17T18:08:43.160Z,39.13
2018-10-17T18:11:15.500Z,33.17
2018-10-17T18:13:44.470Z,33.47
2018-10-17T18:16:12.895Z,32.37
2018-10-17T18:18:41.997Z,30.07
2018-10-17T18:21:10.605Z,30.03
2018-10-17T18:23:39.094Z,29.10
2018-10-17T18:26:07.845Z,30.13
2018-10-17T18:28:36.315Z,29.70
2018-10-17T18:31:04.608Z,23.83
2018-10-17T18:33:33.804Z,24.77
2018-10-17T18:36:02.478Z,22.70
2018-10-17T18:38:31.284Z,22.10
2018-10-17T18:40:59.885Z,20.20
2018-10-17T18:43:28.693Z,21.10
2018-10-17T18:45:57.306Z,21.23
2018-10-17T18:48:25.907Z,20.37
2018-10-17T18:50:54.351Z,19.03
2018-10-17T18:53:23.024Z,18.93
2018-10-17T18:55:51.748Z,18.90
2018-10-17T18:58:20.052Z,18.43
2018-10-17T19:00:49.304Z,18.07
2018-10-17T19:03:18.171Z,24.17
2018-10-17T19:05:46.528Z,20.50
2018-10-17T19:08:15.171Z,19.90
2018-10-17T19:10:44.097Z,24.07
2018-10-17T19:13:12.493Z,19.27
2018-10-17T19:15:41.017Z,20.93
2018-10-17T19:18:10.276Z,16.90
2018-10-17T19:20:38.763Z,17.77
2018-10-17T19:23:07.103Z,20.50
2018-10-17T19:25:35.997Z,18.17
2018-10-17T19:28:04.348Z,20.87
2018-10-17T19:30:32.760Z,22.80
2018-10-17T19:33:01.644Z,23.70
2018-10-17T19:35:30.257Z,22.73
2018-10-17T19:37:58.584Z,19.87
2018-10-17T19:40:27.386Z,22.77
2018-10-17T19:42:56.022Z,20.17
2018-10-17T19:45:24.335Z,19.93
2018-10-17T19:47:53.695Z,19.07
2018-10-17T19:50:22.097Z,18.63
2018-10-17T19:52:50.448Z,22.13
2018-10-17T19:55:19.691Z,21.20
2018-10-17T19:57:48.052Z,24.57
2018-10-17T20:00:16.400Z,21.10
2018-10-17T20:02:45.374Z,18.47
2018-10-17T20:05:13.708Z,22.50
2018-10-17T20:07:42.031Z,17.73
2018-10-17T20:10:10.975Z,17.63
2018-10-17T20:12:39.297Z,17.80
2018-10-17T20:15:07.837Z,19.37
2018-10-17T20:17:36.869Z,16.93
2018-10-17T20:20:05.705Z,19.30
2018-10-17T20:22:34.208Z,21.07
2018-10-17T20:25:03.695Z,20.03
2018-10-17T20:27:31.972Z,19.07
2018-10-17T20:30:00.465Z,19.03
2018-10-17T20:32:29.284Z,18.80
2018-10-17T20:34:57.721Z,20.67
2018-10-17T20:37:26.241Z,18.93
2018-10-17T20:39:55.201Z,19.60
2018-10-17T20:42:23.596Z,18.47
2018-10-17T20:44:51.890Z,20.30
2018-10-17T20:47:20.779Z,22.43
2018-10-17T20:49:49.114Z,21.77
2018-10-17T20:52:17.730Z,19.90
2018-10-17T20:54:46.582Z,18.97
2018-10-17T20:57:15.074Z,18.63
2018-10-17T20:59:43.542Z,16.43
2018-10-17T21:02:12.301Z,17.77
2018-10-17T21:04:40.728Z,18.43
2018-10-17T21:07:09.137Z,15.73
2018-10-17T21:09:38.490Z,18.13
2018-10-17T21:12:06.973Z,17.77
2018-10-17T21:14:35.274Z,18.47
2018-10-17T21:17:04.160Z,24.00
2018-10-17T21:19:32.474Z,19.03
2018-10-17T21:22:01.140Z,19.00
2018-10-17T21:24:30.279Z,21.87
2018-10-17T21:26:59.047Z,21.43
2018-10-17T21:29:27.393Z,21.17
2018-10-17T21:31:56.234Z,21.40
2018-10-17T21:34:24.537Z,22.70
2018-10-17T21:36:53.244Z,20.63
2018-10-17T21:39:21.931Z,18.47
2018-10-17T21:41:50.222Z,19.37
2018-10-17T21:44:18.595Z,17.33
2018-10-17T21:46:47.373Z,18.40
2018-10-17T21:49:15.734Z,20.47
2018-10-17T21:51:44.082Z,21.90
2018-10-17T21:54:12.811Z,20.40
2018-10-17T21:56:41.135Z,18.63
2018-10-17T21:59:09.489Z,21.33
2018-10-17T22:01:38.564Z,22.10
2018-10-17T22:04:07.133Z,17.50
2018-10-17T22:06:35.477Z,18.97
2018-10-17T22:09:05.113Z,20.50
2018-10-17T22:11:33.798Z,18.93
2018-10-17T22:14:02.140Z,19.50
2018-10-17T22:16:36.193Z,20.90
2018-10-17T22:19:05.908Z,23.90
2018-10-17T22:21:34.795Z,20.30
2018-10-17T22:24:03.641Z,22.53
2018-10-17T22:26:33.089Z,23.40
2018-10-17T22:29:01.470Z,25.87
2018-10-17T22:31:30.068Z,21.40
2018-10-17T22:33:58.920Z,22.73
2018-10-17T22:36:27.483Z,24.00
2018-10-17T22:38:56.202Z,20.10
2018-10-17T22:41:25.477Z,23.90
2018-10-17T22:43:53.921Z,26.37
2018-10-17T22:46:22.421Z,23.73
2018-10-17T22:48:51.372Z,30.23
2018-10-17T22:51:19.850Z,22.23
2018-10-17T22:53:48.474Z,22.87
2018-10-17T22:56:17.508Z,21.20
2018-10-17T22:58:45.714Z,28.10
2018-10-17T23:01:14.362Z,24.57
2018-10-17T23:03:43.088Z,21.60
2018-10-17T23:06:11.611Z,20.20
2018-10-17T23:08:40.036Z,21.40
2018-10-17T23:11:08.984Z,24.40
2018-10-17T23:13:37.736Z,22.20
2018-10-17T23:16:06.166Z,20.17
2018-10-17T23:18:35.339Z,18.70
2018-10-17T23:21:03.623Z,21.00
2018-10-17T23:23:32.526Z,18.47
2018-10-17T23:26:01.218Z,20.80
2018-10-17T23:28:29.541Z,24.87
2018-10-17T23:30:58.422Z,22.37
2018-10-17T23:33:27.208Z,21.37
2018-10-17T23:35:55.517Z,23.30
2018-10-17T23:38:24.315Z,22.07
2018-10-17T23:40:53.268Z,21.17
2018-10-17T23:43:21.613Z,26.07
2018-10-17T23:45:50.490Z,23.97
2018-10-17T23:48:19.329Z,23.50
2018-10-17T23:50:47.665Z,25.67
2018-10-17T23:53:16.416Z,24.30
2018-10-17T23:55:45.266Z,21.77
2018-10-17T23:58:13.572Z,25.90
